createdAt,value
2019-05-20T00:01:38.486Z,14.27
2019-05-20T00:04:07.738Z,15.10
2019-05-20T00:06:36.842Z,14.83
2019-05-20T00:09:06.657Z,13.70
2019-05-20T00:11:36.070Z,15.03
2019-05-20T00:14:05.194Z,15.60
2019-05-20T00:16:34.313Z,14.17
2019-05-20T00:19:05.573Z,14.50
2019-05-20T00:21:35.148Z,14.87
2019-05-20T00:24:04.409Z,14.47
2019-05-20T00:26:33.699Z,14.20
2019-05-20T00:29:03.086Z,13.60
2019-05-20T00:31:32.165Z,14.70
2019-05-20T00:34:03.102Z,13.63
2019-05-20T00:36:32.639Z,14.50
2019-05-20T00:39:18.708Z,14.20
2019-05-20T00:41:47.984Z,15.20
2019-05-20T00:44:17.358Z,16.30
2019-05-20T00:46:46.475Z,14.77
2019-05-20T00:49:15.653Z,13.23
2019-05-20T00:51:44.770Z,14.73
2019-05-20T00:54:14.261Z,16.10
2019-05-20T00:56:43.349Z,14.57
2019-05-20T00:59:12.454Z,15.67
2019-05-20T01:01:41.840Z,15.27
2019-05-20T01:04:10.923Z,12.97
2019-05-20T01:06:40.307Z,13.40
2019-05-20T01:09:09.402Z,17.60
2019-05-20T01:11:38.591Z,13.47
2019-05-20T01:14:07.742Z,14.73
2019-05-20T01:16:37.075Z,13.53
2019-05-20T01:19:06.186Z,15.57
2019-05-20T01:21:37.595Z,15.63
2019-05-20T01:24:06.731Z,13.37
2019-05-20T01:26:36.240Z,20.53
2019-05-20T01:29:05.385Z,12.93
2019-05-20T01:31:34.722Z,16.40
2019-05-20T01:34:03.788Z,15.37
2019-05-20T01:36:32.989Z,15.40
2019-05-20T01:39:02.200Z,14.20
2019-05-20T01:41:31.570Z,14.97
2019-05-20T01:44:00.711Z,18.70
2019-05-20T01:46:29.790Z,19.73
2019-05-20T01:48:59.191Z,14.07
2019-05-20T01:51:28.304Z,15.23
2019-05-20T01:53:57.915Z,15.27
2019-05-20T01:56:27.491Z,15.87
2019-05-20T01:58:56.967Z,13.60
2019-05-20T02:01:26.058Z,12.90
2019-05-20T02:03:55.251Z,16.97
2019-05-20T02:06:24.362Z,14.70
2019-05-20T02:08:53.467Z,15.50
2019-05-20T02:11:22.586Z,14.97
2019-05-20T02:13:56.002Z,13.47
2019-05-20T02:16:25.189Z,16.27
2019-05-20T02:18:54.269Z,14.97
2019-05-20T02:21:23.363Z,15.80
2019-05-20T02:23:52.496Z,16.83
2019-05-20T02:26:21.576Z,13.77
2019-05-20T02:28:50.660Z,15.63
2019-05-20T02:31:19.763Z,15.77
2019-05-20T02:33:52.265Z,17.00
2019-05-20T02:36:19.805Z,16.23
2019-05-20T02:38:48.874Z,15.50
2019-05-20T02:41:17.981Z,17.27
2019-05-20T02:43:47.177Z,15.23
2019-05-20T02:46:16.516Z,14.67
2019-05-20T02:48:45.659Z,14.27
2019-05-20T02:51:16.398Z,16.40
2019-05-20T02:53:45.572Z,18.13
2019-05-20T02:56:14.779Z,15.07
2019-05-20T02:58:43.866Z,14.27
2019-05-20T03:01:13.368Z,15.07
2019-05-20T03:03:42.426Z,15.20
2019-05-20T03:06:11.808Z,15.33
2019-05-20T03:08:40.922Z,15.17
2019-05-20T03:11:10.231Z,24.80
2019-05-20T03:13:39.300Z,23.43
2019-05-20T03:16:08.386Z,15.60
2019-05-20T03:18:37.464Z,16.90
2019-05-20T03:21:07.203Z,16.03
2019-05-20T03:23:37.175Z,18.40
2019-05-20T03:26:06.260Z,15.60
2019-05-20T03:28:35.332Z,15.03
2019-05-20T03:31:04.426Z,16.17
2019-05-20T03:33:33.977Z,16.60
2019-05-20T03:36:03.220Z,16.97
2019-05-20T03:38:32.277Z,15.13
2019-05-20T03:41:02.597Z,17.13
2019-05-20T03:43:31.686Z,14.67
2019-05-20T03:46:00.789Z,17.40
2019-05-20T03:48:29.864Z,16.47
2019-05-20T03:50:59.024Z,18.33
2019-05-20T03:53:28.569Z,17.17
2019-05-20T03:55:57.937Z,17.50
2019-05-20T03:58:27.227Z,18.83
2019-05-20T04:00:56.846Z,17.30
2019-05-20T04:03:26.269Z,15.87
2019-05-20T04:05:55.370Z,17.80
2019-05-20T04:08:24.771Z,21.00
2019-05-20T04:10:54.198Z,17.30
2019-05-20T04:13:23.275Z,19.53
2019-05-20T04:15:55.587Z,18.00
2019-05-20T04:18:24.850Z,18.43
2019-05-20T04:20:53.968Z,16.10
2019-05-20T04:23:23.047Z,23.03
2019-05-20T04:25:52.164Z,19.53
2019-05-20T04:28:21.245Z,15.57
2019-05-20T04:30:51.081Z,16.70
2019-05-20T04:33:20.265Z,18.50
2019-05-20T04:35:50.154Z,15.80
2019-05-20T04:38:19.383Z,16.70
2019-05-20T04:40:48.739Z,15.97
2019-05-20T04:43:17.873Z,18.77
2019-05-20T04:45:46.974Z,18.10
2019-05-20T04:48:16.359Z,16.97
2019-05-20T04:50:45.473Z,16.83
2019-05-20T04:53:14.557Z,18.20
2019-05-20T04:55:43.635Z,19.30
2019-05-20T04:58:12.988Z,17.03
2019-05-20T05:01:10.569Z,16.37
2019-05-20T05:03:39.668Z,21.00
2019-05-20T05:06:09.153Z,18.57
2019-05-20T05:08:38.503Z,18.67
2019-05-20T05:11:07.636Z,18.33
2019-05-20T05:13:36.780Z,18.67
2019-05-20T05:16:05.990Z,16.57
2019-05-20T05:18:35.385Z,17.13
2019-05-20T05:21:04.567Z,18.97
2019-05-20T05:23:33.672Z,16.17
2019-05-20T05:26:03.064Z,19.50
2019-05-20T05:28:32.228Z,16.50
2019-05-20T05:31:01.328Z,14.47
2019-05-20T05:33:30.687Z,17.10
2019-05-20T05:35:59.782Z,14.63
2019-05-20T05:38:29.208Z,20.57
2019-05-20T05:40:58.590Z,17.50
2019-05-20T05:43:27.739Z,20.40
2019-05-20T05:45:57.022Z,15.67
2019-05-20T05:48:26.467Z,19.50
2019-05-20T05:50:55.534Z,15.33
2019-05-20T05:53:25.165Z,21.90
2019-05-20T05:55:54.278Z,15.13
2019-05-20T05:58:23.412Z,16.97
2019-05-20T06:00:52.610Z,16.90
2019-05-20T06:03:21.818Z,17.57
2019-05-20T06:05:51.037Z,13.97
2019-05-20T06:08:20.901Z,13.40
2019-05-20T06:10:50.054Z,14.17
2019-05-20T06:13:19.126Z,14.47
2019-05-20T06:15:48.239Z,13.83
2019-05-20T06:18:17.460Z,13.40
2019-05-20T06:20:46.556Z,15.43
2019-05-20T06:23:16.035Z,14.77
2019-05-20T06:25:45.126Z,12.00
2019-05-20T06:28:15.067Z,14.03
2019-05-20T06:30:45.253Z,13.80
2019-05-20T06:33:14.709Z,15.63
2019-05-20T06:35:44.270Z,14.47
2019-05-20T06:38:31.095Z,17.83
2019-05-20T06:41:00.267Z,14.43
2019-05-20T06:43:29.475Z,12.37
2019-05-20T06:45:58.601Z,12.53
2019-05-20T06:48:30.566Z,14.30
2019-05-20T06:50:59.664Z,11.17
2019-05-20T06:53:29.031Z,15.33
2019-05-20T06:55:58.134Z,12.67
2019-05-20T06:58:27.555Z,12.40
2019-05-20T07:00:56.754Z,12.30
2019-05-20T07:03:29.563Z,11.57
2019-05-20T07:05:58.894Z,11.43
2019-05-20T07:08:27.994Z,11.33
2019-05-20T07:10:57.443Z,12.37
2019-05-20T07:13:26.688Z,11.77
2019-05-20T07:15:55.908Z,11.57
2019-05-20T07:18:27.412Z,12.13
2019-05-20T07:20:56.272Z,11.10
2019-05-20T07:23:25.348Z,12.33
2019-05-20T07:25:54.464Z,13.10
2019-05-20T07:28:23.718Z,13.73
2019-05-20T07:30:52.886Z,15.87
2019-05-20T07:33:21.958Z,10.10
2019-05-20T07:35:51.077Z,11.43
2019-05-20T07:38:20.167Z,10.77
2019-05-20T07:40:49.269Z,9.60
2019-05-20T07:43:18.366Z,11.50
2019-05-20T07:45:47.851Z,12.20
2019-05-20T07:48:17.475Z,9.13
2019-05-20T07:50:48.536Z,9.97
2019-05-20T07:53:21.881Z,9.87
2019-05-20T07:56:00.919Z,13.70
2019-05-20T07:58:43.426Z,9.73
2019-05-20T08:01:08.997Z,10.80
2019-05-20T08:03:41.853Z,11.43
2019-05-20T08:06:24.173Z,8.87
2019-05-20T08:08:54.598Z,9.67
2019-05-20T08:11:23.852Z,9.77
2019-05-20T08:13:53.104Z,9.83
2019-05-20T08:16:25.162Z,11.60
2019-05-20T08:18:54.588Z,10.43
2019-05-20T08:21:23.998Z,10.50
2019-05-20T08:23:53.760Z,12.20
2019-05-20T08:26:22.851Z,10.30
2019-05-20T08:28:52.070Z,8.13
2019-05-20T08:31:21.530Z,12.20
2019-05-20T08:33:50.775Z,9.03
2019-05-20T08:36:20.451Z,8.40
2019-05-20T08:38:49.673Z,8.00
2019-05-20T08:41:19.051Z,9.23
2019-05-20T08:43:48.246Z,8.33
2019-05-20T08:46:17.709Z,7.97
2019-05-20T08:48:46.870Z,10.70
2019-05-20T08:51:15.992Z,7.97
2019-05-20T08:53:45.551Z,8.50
2019-05-20T08:56:14.942Z,10.57
2019-05-20T08:58:44.113Z,8.93
2019-05-20T09:01:13.520Z,7.33
2019-05-20T09:03:42.641Z,11.70
2019-05-20T09:06:12.064Z,7.27
2019-05-20T09:08:41.612Z,9.57
2019-05-20T09:11:10.722Z,7.87
2019-05-20T09:13:39.862Z,7.93
2019-05-20T09:16:08.942Z,8.10
2019-05-20T09:18:38.022Z,7.63
2019-05-20T09:21:07.393Z,8.00
2019-05-20T09:23:36.543Z,8.97
2019-05-20T09:26:05.953Z,7.40
2019-05-20T09:28:35.087Z,8.77
2019-05-20T09:31:04.228Z,9.17
2019-05-20T09:33:33.417Z,5.73
2019-05-20T09:36:07.257Z,6.60
2019-05-20T09:38:37.193Z,7.20
2019-05-20T09:41:06.417Z,5.90
2019-05-20T09:43:35.946Z,12.37
2019-05-20T09:46:08.054Z,5.13
2019-05-20T09:48:36.583Z,12.00
2019-05-20T09:51:09.886Z,7.87
2019-05-20T09:53:39.078Z,7.03
2019-05-20T09:56:08.266Z,6.13
2019-05-20T09:58:37.507Z,6.50
2019-05-20T10:01:06.654Z,8.37
2019-05-20T10:03:35.888Z,6.97
2019-05-20T10:06:05.000Z,5.60
2019-05-20T10:08:40.960Z,6.17
2019-05-20T10:11:05.113Z,6.50
2019-05-20T10:13:34.222Z,6.00
2019-05-20T10:16:03.297Z,6.13
2019-05-20T10:18:37.288Z,8.33
2019-05-20T10:21:03.381Z,6.93
2019-05-20T10:23:32.545Z,6.53
2019-05-20T10:26:01.716Z,8.63
2019-05-20T10:28:30.983Z,8.53
2019-05-20T10:31:00.091Z,12.50
2019-05-20T10:33:29.777Z,10.23
2019-05-20T10:35:58.873Z,7.77
2019-05-20T10:38:27.988Z,8.20
2019-05-20T10:40:57.375Z,6.20
2019-05-20T10:43:26.517Z,9.17
2019-05-20T10:45:55.634Z,7.07
2019-05-20T10:48:24.710Z,8.40
2019-05-20T10:50:53.805Z,6.70
2019-05-20T10:53:22.912Z,7.50
2019-05-20T10:55:52.350Z,10.10
2019-05-20T10:58:21.835Z,7.42
2019-05-20T11:01:01.638Z,12.18
2019-05-20T11:03:21.733Z,11.25
2019-05-20T11:05:50.847Z,8.80
2019-05-20T11:08:20.011Z,11.60
2019-05-20T11:10:49.115Z,8.30
2019-05-20T11:13:18.573Z,6.72
2019-05-20T11:15:47.755Z,6.37
2019-05-20T11:18:17.173Z,6.78
2019-05-20T11:20:46.941Z,6.97
2019-05-20T11:23:16.663Z,8.15
2019-05-20T11:25:46.107Z,9.58
2019-05-20T11:28:15.225Z,7.50
2019-05-20T11:30:44.288Z,7.42
2019-05-20T11:33:13.404Z,7.78
2019-05-20T11:35:42.479Z,8.87
2019-05-20T11:38:11.800Z,6.47
2019-05-20T11:40:40.930Z,7.20
2019-05-20T11:43:09.990Z,6.03
2019-05-20T11:45:39.071Z,6.70
2019-05-20T11:48:09.665Z,13.90
2019-05-20T11:50:38.860Z,8.33
2019-05-20T11:53:11.512Z,6.20
2019-05-20T11:55:40.594Z,11.65
2019-05-20T11:58:15.995Z,5.57
2019-05-20T12:00:40.635Z,7.08
2019-05-20T12:03:09.708Z,11.70
2019-05-20T12:05:38.853Z,7.28
2019-05-20T12:08:08.311Z,9.17
2019-05-20T12:10:37.407Z,9.03
2019-05-20T12:13:06.765Z,13.45
2019-05-20T12:15:35.850Z,8.98
2019-05-20T12:18:04.983Z,8.98
2019-05-20T12:20:34.098Z,11.95
2019-05-20T12:23:03.272Z,7.95
2019-05-20T12:25:32.769Z,7.58
2019-05-20T12:28:02.107Z,7.05
2019-05-20T12:30:31.366Z,12.07
2019-05-20T12:33:17.921Z,8.33
2019-05-20T12:35:31.478Z,9.58
2019-05-20T12:38:00.687Z,13.40
2019-05-20T12:40:29.791Z,8.28
2019-05-20T12:42:59.155Z,7.47
2019-05-20T12:45:28.323Z,7.65
2019-05-20T12:47:57.478Z,8.45
2019-05-20T12:50:26.853Z,8.48
2019-05-20T12:52:55.961Z,9.95
2019-05-20T12:55:25.400Z,7.67
2019-05-20T12:57:54.467Z,8.98
2019-05-20T13:00:25.818Z,7.78
2019-05-20T13:02:54.909Z,7.60
2019-05-20T13:05:24.325Z,7.80
2019-05-20T13:07:53.455Z,8.55
2019-05-20T13:10:29.886Z,10.68
2019-05-20T13:12:53.449Z,7.45
2019-05-20T13:15:22.768Z,8.60
2019-05-20T13:17:52.490Z,9.73
2019-05-20T13:20:22.057Z,10.00
2019-05-20T13:22:51.341Z,9.65
2019-05-20T13:25:20.669Z,7.30
2019-05-20T13:27:49.766Z,7.30
2019-05-20T13:30:19.276Z,10.00
2019-05-20T13:32:48.879Z,6.67
2019-05-20T13:35:18.184Z,8.90
2019-05-20T13:37:47.385Z,11.20
2019-05-20T13:40:16.821Z,8.00
2019-05-20T13:42:45.902Z,8.18
2019-05-20T13:45:15.462Z,11.38
2019-05-20T13:47:44.598Z,8.17
2019-05-20T13:50:14.158Z,8.63
2019-05-20T13:52:43.238Z,8.03
2019-05-20T13:55:16.763Z,7.37
2019-05-20T13:57:45.899Z,7.58
2019-05-20T14:00:15.384Z,7.97
2019-05-20T14:02:44.574Z,10.43
2019-05-20T14:05:13.829Z,8.93
2019-05-20T14:07:42.906Z,10.07
2019-05-20T14:10:12.295Z,7.30
2019-05-20T14:12:41.816Z,12.73
2019-05-20T14:15:11.027Z,9.33
2019-05-20T14:17:40.548Z,8.77
2019-05-20T14:20:09.899Z,9.13
2019-05-20T14:22:38.959Z,9.43
2019-05-20T14:25:08.922Z,8.17
2019-05-20T14:27:38.275Z,10.63
2019-05-20T14:30:07.982Z,14.43
2019-05-20T14:32:37.294Z,12.43
2019-05-20T14:35:06.413Z,11.87
2019-05-20T14:37:35.500Z,18.67
2019-05-20T14:40:05.603Z,14.50
2019-05-20T14:42:34.677Z,14.57
2019-05-20T14:45:03.879Z,15.00
2019-05-20T14:47:33.252Z,12.80
2019-05-20T14:50:02.692Z,16.60
2019-05-20T14:52:32.143Z,16.30
2019-05-20T14:55:01.302Z,16.07
2019-05-20T14:57:30.461Z,19.23
2019-05-20T14:59:59.653Z,13.63
2019-05-20T15:02:31.176Z,15.67
2019-05-20T15:04:59.885Z,13.32
2019-05-20T15:07:31.185Z,15.50
2019-05-20T15:10:00.406Z,15.60
2019-05-20T15:12:29.559Z,20.60
2019-05-20T15:14:59.250Z,18.13
2019-05-20T15:17:28.370Z,13.37
2019-05-20T15:19:57.458Z,14.00
2019-05-20T15:22:26.803Z,9.93
2019-05-20T15:24:55.903Z,9.70
2019-05-20T15:27:25.040Z,16.27
2019-05-20T15:29:54.351Z,12.30
2019-05-20T15:32:23.423Z,9.73
2019-05-20T15:34:52.770Z,14.53
2019-05-20T15:37:21.855Z,15.10
2019-05-20T15:39:51.035Z,12.70
2019-05-20T15:42:20.151Z,12.50
2019-05-20T15:44:49.365Z,12.23
2019-05-20T15:47:19.081Z,11.50
2019-05-20T15:49:48.777Z,11.30
2019-05-20T15:52:18.415Z,7.80
2019-05-20T15:54:47.615Z,9.23
2019-05-20T15:57:16.959Z,13.63
2019-05-20T15:59:46.811Z,6.67
2019-05-20T16:02:16.019Z,8.93
2019-05-20T16:04:45.102Z,9.23
2019-05-20T16:07:14.184Z,8.53
2019-05-20T16:09:43.292Z,7.90
2019-05-20T16:12:12.370Z,11.87
2019-05-20T16:14:41.537Z,9.57
2019-05-20T16:17:10.719Z,15.17
2019-05-20T16:19:39.826Z,11.90
2019-05-20T16:22:09.201Z,11.83
2019-05-20T16:24:38.275Z,8.87
2019-05-20T16:27:07.391Z,12.63
2019-05-20T16:29:36.857Z,9.93
2019-05-20T16:32:06.055Z,10.73
2019-05-20T16:34:35.178Z,12.37
2019-05-20T16:37:04.602Z,10.27
2019-05-20T16:39:33.803Z,11.00
2019-05-20T16:42:03.286Z,11.90
2019-05-20T16:44:32.403Z,11.63
2019-05-20T16:47:01.634Z,11.37
2019-05-20T16:49:31.077Z,12.17
2019-05-20T16:52:00.787Z,15.63
2019-05-20T16:54:30.296Z,13.43
2019-05-20T16:56:59.687Z,16.27
2019-05-20T16:59:28.775Z,15.50
2019-05-20T17:01:57.842Z,16.00
2019-05-20T17:04:26.939Z,15.13
2019-05-20T17:06:56.125Z,12.60
2019-05-20T17:09:25.235Z,17.33
2019-05-20T17:11:54.352Z,15.93
2019-05-20T17:14:23.439Z,15.70
2019-05-20T17:16:52.586Z,15.77
2019-05-20T17:19:21.701Z,13.77
2019-05-20T17:21:50.973Z,13.43
2019-05-20T17:24:23.006Z,12.33
2019-05-20T17:26:52.647Z,10.50
2019-05-20T17:29:21.772Z,10.93
2019-05-20T17:31:50.861Z,15.43
2019-05-20T17:34:19.964Z,12.27
2019-05-20T17:36:49.047Z,12.03
2019-05-20T17:39:18.271Z,13.87
2019-05-20T17:41:47.550Z,14.37
2019-05-20T17:44:21.023Z,13.40
2019-05-20T17:46:50.386Z,12.63
2019-05-20T17:49:19.525Z,12.07
2019-05-20T17:51:48.680Z,12.97
2019-05-20T17:54:17.751Z,12.60
2019-05-20T17:56:46.802Z,11.83
2019-05-20T17:59:20.036Z,12.20
2019-05-20T18:01:49.131Z,13.23
2019-05-20T18:04:18.289Z,11.77
2019-05-20T18:06:47.456Z,10.77
2019-05-20T18:09:16.641Z,12.63
2019-05-20T18:11:45.747Z,11.13
2019-05-20T18:14:14.842Z,11.90
2019-05-20T18:16:43.986Z,12.07
2019-05-20T18:19:13.086Z,13.30
2019-05-20T18:21:42.470Z,12.23
2019-05-20T18:24:11.605Z,13.30
2019-05-20T18:26:40.722Z,15.73
2019-05-20T18:29:09.986Z,15.40
2019-05-20T18:31:39.723Z,19.20
2019-05-20T18:34:08.791Z,18.60
2019-05-20T18:36:37.895Z,16.77
2019-05-20T18:39:07.436Z,19.23
2019-05-20T18:41:36.551Z,17.63
2019-05-20T18:44:05.630Z,16.23
2019-05-20T18:46:34.879Z,17.20
2019-05-20T18:49:04.736Z,16.03
2019-05-20T18:51:33.927Z,31.17
2019-05-20T18:54:03.026Z,19.27
2019-05-20T18:56:32.218Z,19.53
2019-05-20T18:59:01.609Z,17.77
2019-05-20T19:01:31.159Z,16.10
2019-05-20T19:04:00.577Z,25.20
2019-05-20T19:06:29.730Z,21.33
2019-05-20T19:08:58.863Z,17.83
2019-05-20T19:11:27.958Z,18.20
2019-05-20T19:13:57.143Z,21.23
2019-05-20T19:16:26.707Z,18.57
2019-05-20T19:18:55.989Z,22.67
2019-05-20T19:21:25.069Z,19.57
2019-05-20T19:23:54.235Z,18.57
2019-05-20T19:26:25.256Z,19.00
2019-05-20T19:28:54.803Z,18.03
2019-05-20T19:31:23.896Z,18.10
2019-05-20T19:33:53.039Z,16.93
2019-05-20T19:36:22.636Z,18.03
2019-05-20T19:38:51.829Z,17.10
2019-05-20T19:41:20.918Z,18.07
2019-05-20T19:43:50.084Z,18.00
2019-05-20T19:46:22.668Z,18.60
2019-05-20T19:48:52.034Z,18.17
2019-05-20T19:51:21.189Z,18.33
2019-05-20T19:53:50.370Z,17.80
2019-05-20T19:56:19.516Z,19.07
2019-05-20T19:58:48.865Z,16.30
2019-05-20T20:01:21.708Z,16.43
2019-05-20T20:03:50.805Z,18.00
2019-05-20T20:06:20.567Z,16.43
2019-05-20T20:08:49.651Z,16.73
2019-05-20T20:11:18.874Z,16.60
2019-05-20T20:13:48.041Z,17.23
2019-05-20T20:16:18.045Z,16.07
2019-05-20T20:18:47.840Z,15.70
2019-05-20T20:21:17.097Z,16.47
2019-05-20T20:23:46.218Z,17.47
2019-05-20T20:26:15.382Z,20.37
2019-05-20T20:28:44.486Z,17.87
2019-05-20T20:31:13.582Z,18.40
2019-05-20T20:33:42.754Z,16.03
2019-05-20T20:36:12.602Z,14.17
2019-05-20T20:38:41.686Z,14.53
2019-05-20T20:41:11.105Z,14.53
2019-05-20T20:43:40.264Z,15.13
2019-05-20T20:46:09.364Z,17.77
2019-05-20T20:48:39.199Z,15.80
2019-05-20T20:51:08.632Z,17.77
2019-05-20T20:53:37.742Z,14.97
2019-05-20T20:56:06.848Z,15.83
2019-05-20T20:58:36.204Z,14.30
2019-05-20T21:01:05.345Z,13.87
2019-05-20T21:03:34.718Z,13.70
2019-05-20T21:06:03.835Z,16.67
2019-05-20T21:08:33.480Z,15.00
2019-05-20T21:11:03.150Z,17.00
2019-05-20T21:13:32.255Z,15.70
2019-05-20T21:16:01.366Z,15.83
2019-05-20T21:18:30.481Z,13.63
2019-05-20T21:20:59.856Z,13.97
2019-05-20T21:23:28.930Z,14.43
2019-05-20T21:25:58.146Z,13.33
2019-05-20T21:28:27.207Z,12.30
2019-05-20T21:30:56.330Z,12.33
2019-05-20T21:33:25.984Z,12.10
2019-05-20T21:35:55.065Z,14.93
2019-05-20T21:38:24.143Z,16.53
2019-05-20T21:40:53.246Z,13.07
2019-05-20T21:43:22.440Z,11.50
2019-05-20T21:45:51.744Z,11.47
2019-05-20T21:48:21.102Z,11.47
2019-05-20T21:50:50.464Z,14.73
2019-05-20T21:53:19.578Z,13.77
2019-05-20T21:55:48.994Z,17.03
2019-05-20T21:58:18.610Z,22.33
2019-05-20T22:00:51.874Z,19.33
2019-05-20T22:03:24.694Z,17.90
2019-05-20T22:05:52.293Z,17.23
2019-05-20T22:08:21.421Z,15.67
2019-05-20T22:10:50.541Z,16.13
2019-05-20T22:13:20.239Z,16.33
2019-05-20T22:15:49.312Z,15.00
2019-05-20T22:18:18.516Z,17.67
2019-05-20T22:20:47.802Z,18.20
2019-05-20T22:23:34.541Z,12.90
2019-05-20T22:26:03.708Z,16.23
2019-05-20T22:28:32.804Z,16.40
2019-05-20T22:31:02.146Z,22.60
2019-05-20T22:33:40.886Z,13.53
2019-05-20T22:36:02.031Z,14.10
2019-05-20T22:38:31.104Z,16.80
2019-05-20T22:41:00.302Z,14.37
2019-05-20T22:43:32.518Z,16.07
2019-05-20T22:46:01.646Z,18.67
2019-05-20T22:48:30.959Z,15.60
2019-05-20T22:51:00.137Z,13.07
2019-05-20T22:53:29.319Z,14.77
2019-05-20T22:55:58.452Z,12.50
2019-05-20T22:58:27.819Z,12.80
2019-05-20T23:00:57.162Z,17.47
2019-05-20T23:03:26.515Z,14.50
2019-05-20T23:05:55.603Z,13.27
2019-05-20T23:08:24.761Z,13.43
2019-05-20T23:10:53.912Z,11.70
2019-05-20T23:13:23.366Z,14.97
2019-05-20T23:15:55.577Z,17.93
2019-05-20T23:18:23.531Z,13.30
2019-05-20T23:20:52.930Z,14.07
2019-05-20T23:23:22.417Z,17.43
2019-05-20T23:25:52.860Z,18.13
2019-05-20T23:28:22.223Z,13.73
2019-05-20T23:30:51.646Z,17.13
2019-05-20T23:33:20.739Z,13.93
2019-05-20T23:35:50.074Z,17.23
2019-05-20T23:38:19.247Z,13.73
2019-05-20T23:40:48.489Z,13.50
2019-05-20T23:43:20.410Z,13.27
2019-05-20T23:45:49.500Z,15.53
2019-05-20T23:48:18.966Z,12.67
2019-05-20T23:50:48.126Z,15.53
2019-05-20T23:53:17.473Z,17.17
2019-05-20T23:55:46.747Z,14.73
2019-05-20T23:58:15.857Z,17.03
